Time,TemperatureF,DewpointF,PressureIn,WindDirection,WindDirectionDegrees,WindSpeedMPH,WindSpeedGustMPH,Humidity,HourlyPrecipIn,Conditions,Clouds,dailyrainin,SoftwareType,DateUTC
2013-06-11 00:00:00,65.2,63.4,29.79,North,355,1.0,1.0,94,0.00,,,0.00,Wunderground v.1.15,2013-06-11 04:00:00,
2013-06-11 00:02:00,65.2,63.4,29.79,North,355,1.0,2.0,94,0.00,,,0.00,Wunderground v.1.15,2013-06-11 04:02:00,
2013-06-11 00:03:00,65.1,63.3,29.79,North,355,1.0,5.0,94,0.00,,,0.00,Wunderground v.1.15,2013-06-11 04:03:00,
2013-06-11 00:04:00,65.1,63.3,29.79,North,355,2.0,5.0,94,0.00,,,0.00,Wunderground v.1.15,2013-06-11 04:04:00,
2013-06-11 00:07:00,65.0,63.2,29.79,North,351,2.0,5.0,94,0.00,,,0.00,Wunderground v.1.15,2013-06-11 04:07:00,
2013-06-11 00:13:00,64.9,63.4,29.79,North,351,2.0,2.0,95,0.00,,,0.00,Wunderground v.1.15,2013-06-11 04:13:00,
2013-06-11 00:18:00,64.9,63.4,29.79,North,350,1.0,4.0,95,0.00,,,0.00,Wunderground v.1.15,2013-06-11 04:18:00,
2013-06-11 00:24:00,64.8,63.3,29.79,North,349,1.0,2.0,95,0.00,,,0.00,Wunderground v.1.15,2013-06-11 04:24:00,
2013-06-11 00:30:00,64.7,63.2,29.79,North,355,1.0,5.0,95,0.00,,,0.00,Wunderground v.1.15,2013-06-11 04:30:00,
2013-06-11 00:35:00,64.6,62.8,29.79,North,355,2.0,5.0,94,0.00,,,0.00,Wunderground v.1.15,2013-06-11 04:35:00,
2013-06-11 00:40:00,64.5,63.0,29.79,North,360,1.0,3.0,95,0.00,,,0.00,Wunderground v.1.15,2013-06-11 04:40:00,
2013-06-11 00:47:00,64.4,62.9,29.79,North,360,1.0,3.0,95,0.00,,,0.00,Wunderground v.1.15,2013-06-11 04:47:00,
2013-06-11 00:52:00,64.3,62.8,29.79,North,360,1.0,4.0,95,0.00,,,0.00,Wunderground v.1.15,2013-06-11 04:52:00,
2013-06-11 00:57:00,64.3,62.8,29.79,North,360,1.0,4.0,95,0.00,,,0.00,Wunderground v.1.15,2013-06-11 04:57:00,
2013-06-11 01:03:00,64.2,62.7,29.79,North,355,1.0,1.0,95,0.00,,,0.00,Wunderground v.1.15,2013-06-11 05:03:00,
2013-06-11 01:08:00,64.1,62.6,29.79,North,355,1.0,1.0,95,0.00,,,0.00,Wunderground v.1.15,2013-06-11 05:08:00,
2013-06-11 01:13:00,64.1,62.6,29.79,North,355,0.0,1.0,95,0.00,,,0.00,Wunderground v.1.15,2013-06-11 05:13:00,
2013-06-11 01:18:00,64.0,62.5,29.79,North,355,0.0,0.0,95,0.00,,,0.00,Wunderground v.1.15,2013-06-11 05:18:00,
2013-06-11 01:24:00,63.9,62.4,29.79,North,355,0.0,0.0,95,0.00,,,0.00,Wunderground v.1.15,2013-06-11 05:24:00,
2013-06-11 01:29:00,63.9,62.4,29.79,North,355,0.0,1.0,95,0.00,,,0.00,Wunderground v.1.15,2013-06-11 05:29:00,
2013-06-11 01:35:00,63.9,62.4,29.80,North,355,1.0,4.0,95,0.00,,,0.00,Wunderground v.1.15,2013-06-11 05:35:00,
2013-06-11 01:40:00,63.8,62.3,29.80,North,355,1.0,4.0,95,0.00,,,0.00,Wunderground v.1.15,2013-06-11 05:40:00,
2013-06-11 01:46:00,63.7,62.2,29.80,North,355,0.0,4.0,95,0.00,,,0.00,Wunderground v.1.15,2013-06-11 05:46:00,
2013-06-11 01:51:00,63.6,62.1,29.80,North,355,1.0,1.0,95,0.00,,,0.00,Wunderground v.1.15,2013-06-11 05:51:00,
2013-06-11 01:56:00,63.6,62.1,29.80,North,355,1.0,2.0,95,0.00,,,0.00,Wunderground v.1.15,2013-06-11 05:56:00,
2013-06-11 02:02:00,63.5,62.0,29.80,North,355,1.0,1.0,95,0.00,,,0.00,Wunderground v.1.15,2013-06-11 06:02:00,
2013-06-11 02:08:00,63.3,61.8,29.80,North,5,1.0,4.0,95,0.00,,,0.00,Wunderground v.1.15,2013-06-11 06:08:00,
2013-06-11 02:13:00,63.0,61.5,29.80,North,360,3.0,10.0,95,0.00,,,0.00,Wunderground v.1.15,2013-06-11 06:13:00,
2013-06-11 02:18:00,62.8,61.3,29.80,North,360,3.0,3.0,95,0.00,,,0.00,Wunderground v.1.15,2013-06-11 06:18:00,
2013-06-11 02:24:00,62.7,61.2,29.80,North,5,1.0,3.0,95,0.00,,,0.00,Wunderground v.1.15,2013-06-11 06:24:00,
2013-06-11 02:29:00,62.6,61.1,29.80,North,11,2.0,4.0,95,0.00,,,0.00,Wunderground v.1.15,2013-06-11 06:29:00,
2013-06-11 02:35:00,62.6,61.4,29.80,North,10,1.0,4.0,96,0.00,,,0.00,Wunderground v.1.15,2013-06-11 06:35:00,
2013-06-11 02:41:00,62.6,61.4,29.80,North,360,1.0,4.0,96,0.00,,,0.00,Wunderground v.1.15,2013-06-11 06:41:00,
2013-06-11 02:46:00,62.5,61.3,29.80,North,360,2.0,4.0,96,0.00,,,0.00,Wunderground v.1.15,2013-06-11 06:46:00,
2013-06-11 02:51:00,62.5,61.3,29.80,NNE,14,2.0,4.0,96,0.00,,,0.00,Wunderground v.1.15,2013-06-11 06:51:00,
2013-06-11 02:57:00,62.5,61.3,29.80,NNE,14,2.0,4.0,96,0.00,,,0.00,Wunderground v.1.15,2013-06-11 06:57:00,
2013-06-11 03:02:00,62.5,61.3,29.81,NNE,14,1.0,3.0,96,0.00,,,0.00,Wunderground v.1.15,2013-06-11 07:02:00,
2013-06-11 03:07:00,62.4,61.2,29.81,NNE,13,1.0,4.0,96,0.00,,,0.00,Wunderground v.1.15,2013-06-11 07:07:00,
2013-06-11 03:12:00,62.4,61.2,29.81,NNE,13,1.0,5.0,96,0.00,,,0.00,Wunderground v.1.15,2013-06-11 07:12:00,
2013-06-11 03:17:00,62.3,61.1,29.81,North,11,1.0,5.0,96,0.00,,,0.00,Wunderground v.1.15,2013-06-11 07:17:00,
2013-06-11 03:23:00,62.2,61.0,29.81,North,9,3.0,4.0,96,0.00,,,0.00,Wunderground v.1.15,2013-06-11 07:23:00,
2013-06-11 03:28:00,62.2,61.0,29.81,NNW,330,3.0,3.0,96,0.00,,,0.00,Wunderground v.1.15,2013-06-11 07:28:00,
2013-06-11 03:34:00,62.1,60.9,29.81,NNW,347,2.0,5.0,96,0.00,,,0.00,Wunderground v.1.15,2013-06-11 07:34:00,
2013-06-11 03:39:00,62.2,61.0,29.81,NNW,346,1.0,1.0,96,0.00,,,0.00,Wunderground v.1.15,2013-06-11 07:39:00,
2013-06-11 03:44:00,62.1,60.9,29.82,NNW,346,1.0,1.0,96,0.00,,,0.00,Wunderground v.1.15,2013-06-11 07:44:00,
2013-06-11 03:50:00,62.1,60.9,29.82,NNW,346,1.0,4.0,96,0.00,,,0.00,Wunderground v.1.15,2013-06-11 07:50:00,
2013-06-11 03:56:00,62.0,60.8,29.82,NNW,335,2.0,6.0,96,0.00,,,0.00,Wunderground v.1.15,2013-06-11 07:56:00,
2013-06-11 04:02:00,62.0,60.8,29.81,NNW,341,2.0,3.0,96,0.00,,,0.00,Wunderground v.1.15,2013-06-11 08:02:00,
2013-06-11 04:08:00,61.9,61.0,29.81,NNW,342,1.0,3.0,97,0.00,,,0.00,Wunderground v.1.15,2013-06-11 08:08:00,
2013-06-11 04:13:00,61.9,61.0,29.81,NNW,342,0.0,1.0,97,0.00,,,0.00,Wunderground v.1.15,2013-06-11 08:13:00,
2013-06-11 04:18:00,61.9,61.0,29.81,NNW,341,0.0,0.0,97,0.00,,,0.00,Wunderground v.1.15,2013-06-11 08:18:00,
2013-06-11 04:24:00,61.9,61.0,29.81,NNW,342,1.0,3.0,97,0.00,,,0.00,Wunderground v.1.15,2013-06-11 08:24:00,
2013-06-11 04:30:00,61.9,61.0,29.81,NNW,341,1.0,1.0,97,0.00,,,0.00,Wunderground v.1.15,2013-06-11 08:30:00,
2013-06-11 04:35:00,61.9,61.0,29.81,NNW,342,0.0,1.0,97,0.00,,,0.00,Wunderground v.1.15,2013-06-11 08:35:00,
2013-06-11 04:41:00,61.9,61.0,29.81,NNW,341,0.0,1.0,97,0.00,,,0.00,Wunderground v.1.15,2013-06-11 08:41:00,
2013-06-11 04:47:00,61.9,61.0,29.82,NNW,342,0.0,1.0,97,0.00,,,0.00,Wunderground v.1.15,2013-06-11 08:47:00,
2013-06-11 04:52:00,61.9,61.0,29.82,NNW,341,0.0,2.0,97,0.00,,,0.00,Wunderground v.1.15,2013-06-11 08:52:00,
2013-06-11 04:57:00,61.8,60.9,29.83,NNW,341,1.0,2.0,97,0.00,,,0.00,Wunderground v.1.15,2013-06-11 08:57:00,
2013-06-11 05:03:00,61.8,60.9,29.83,NNW,341,0.0,1.0,97,0.00,,,0.00,Wunderground v.1.15,2013-06-11 09:03:00,
2013-06-11 05:08:00,61.8,60.9,29.83,NNW,341,0.0,0.0,97,0.00,,,0.00,Wunderground v.1.15,2013-06-11 09:08:00,
2013-06-11 05:15:00,61.8,60.9,29.83,NNW,341,0.0,0.0,97,0.00,,,0.00,Wunderground v.1.15,2013-06-11 09:15:00,
2013-06-11 05:20:00,61.8,60.9,29.83,NNW,341,0.0,0.0,97,0.00,,,0.00,Wunderground v.1.15,2013-06-11 09:20:00,
2013-06-11 05:25:00,61.8,60.9,29.83,NNW,341,0.0,3.0,97,0.00,,,0.00,Wunderground v.1.15,2013-06-11 09:25:00,
2013-06-11 05:30:00,61.8,60.9,29.83,NNW,341,0.0,0.0,97,0.00,,,0.00,Wunderground v.1.15,2013-06-11 09:30:00,
2013-06-11 05:36:00,61.9,61.0,29.84,NNW,341,0.0,0.0,97,0.00,,,0.00,Wunderground v.1.15,2013-06-11 09:36:00,
2013-06-11 05:42:00,61.9,61.0,29.83,NNW,341,0.0,0.0,97,0.00,,,0.00,Wunderground v.1.15,2013-06-11 09:42:00,
2013-06-11 05:47:00,61.9,61.0,29.83,NNW,341,0.0,1.0,97,0.00,,,0.00,Wunderground v.1.15,2013-06-11 09:47:00,
2013-06-11 05:52:00,61.9,61.0,29.83,NNW,340,0.0,0.0,97,0.00,,,0.00,Wunderground v.1.15,2013-06-11 09:52:00,
2013-06-11 05:57:00,61.9,61.0,29.83,NE,51,0.0,0.0,97,0.00,,,0.01,Wunderground v.1.15,2013-06-11 09:57:00,
2013-06-11 06:03:00,62.0,61.1,29.83,WNW,283,0.0,0.0,97,0.00,,,0.01,Wunderground v.1.15,2013-06-11 10:03:00,
2013-06-11 06:08:00,62.0,61.1,29.83,WNW,293,0.0,0.0,97,0.00,,,0.01,Wunderground v.1.15,2013-06-11 10:08:00,
2013-06-11 06:14:00,62.0,61.1,29.84,SW,219,0.0,0.0,97,0.04,,,0.02,Wunderground v.1.15,2013-06-11 10:14:00,
2013-06-11 06:19:00,62.0,61.1,29.84,SW,234,0.0,0.0,97,0.04,,,0.02,Wunderground v.1.15,2013-06-11 10:19:00,
2013-06-11 06:25:00,62.0,61.1,29.84,SW,234,0.0,0.0,97,0.04,,,0.02,Wunderground v.1.15,2013-06-11 10:25:00,
2013-06-11 06:30:00,62.1,61.2,29.85,SW,234,0.0,0.0,97,0.00,,,0.02,Wunderground v.1.15,2013-06-11 10:30:00,
2013-06-11 06:35:00,62.1,61.2,29.85,SW,234,0.0,0.0,97,0.00,,,0.02,Wunderground v.1.15,2013-06-11 10:35:00,
2013-06-11 06:42:00,62.2,61.3,29.85,SW,234,0.0,0.0,97,0.00,,,0.02,Wunderground v.1.15,2013-06-11 10:42:00,
2013-06-11 06:47:00,62.2,61.3,29.85,NW,317,0.0,0.0,97,0.00,,,0.02,Wunderground v.1.15,2013-06-11 10:47:00,
2013-06-11 06:52:00,62.2,61.3,29.86,NW,317,0.0,0.0,97,0.00,,,0.02,Wunderground v.1.15,2013-06-11 10:52:00,
2013-06-11 06:58:00,62.3,61.4,29.86,NW,317,0.0,0.0,97,0.00,,,0.02,Wunderground v.1.15,2013-06-11 10:58:00,
2013-06-11 07:04:00,62.3,61.4,29.86,NW,317,0.0,0.0,97,0.00,,,0.02,Wunderground v.1.15,2013-06-11 11:04:00,
2013-06-11 07:09:00,62.4,61.5,29.86,NW,317,0.0,1.0,97,0.00,,,0.02,Wunderground v.1.15,2013-06-11 11:09:00,
2013-06-11 07:14:00,62.5,61.6,29.86,NW,317,0.0,1.0,97,0.00,,,0.02,Wunderground v.1.15,2013-06-11 11:14:00,
2013-06-11 07:20:00,62.7,61.8,29.86,NW,318,0.0,1.0,97,0.00,,,0.02,Wunderground v.1.15,2013-06-11 11:20:00,
2013-06-11 07:26:00,62.9,62.0,29.86,NW,318,0.0,1.0,97,0.00,,,0.02,Wunderground v.1.15,2013-06-11 11:26:00,
2013-06-11 07:32:00,63.0,62.1,29.86,NW,318,0.0,0.0,97,0.00,,,0.02,Wunderground v.1.15,2013-06-11 11:32:00,
2013-06-11 07:37:00,63.2,62.3,29.86,NW,318,0.0,1.0,97,0.00,,,0.02,Wunderground v.1.15,2013-06-11 11:37:00,
2013-06-11 07:43:00,63.3,62.4,29.87,NW,318,0.0,0.0,97,0.00,,,0.02,Wunderground v.1.15,2013-06-11 11:43:00,
2013-06-11 07:49:00,63.4,62.8,29.86,NW,318,0.0,0.0,98,0.00,,,0.02,Wunderground v.1.15,2013-06-11 11:49:00,
2013-06-11 07:55:00,63.4,62.5,29.86,NW,318,0.0,0.0,97,0.00,,,0.02,Wunderground v.1.15,2013-06-11 11:55:00,
2013-06-11 08:00:00,63.5,62.6,29.86,NW,319,0.0,0.0,97,0.00,,,0.02,Wunderground v.1.15,2013-06-11 12:00:00,
2013-06-11 08:06:00,63.6,62.7,29.86,NW,319,0.0,0.0,97,0.00,,,0.02,Wunderground v.1.15,2013-06-11 12:06:00,
2013-06-11 08:11:00,63.6,62.7,29.86,NW,304,0.0,2.0,97,0.00,,,0.02,Wunderground v.1.15,2013-06-11 12:11:00,
2013-06-11 08:17:00,63.7,62.8,29.86,NW,304,0.0,2.0,97,0.00,,,0.02,Wunderground v.1.15,2013-06-11 12:17:00,
2013-06-11 08:22:00,63.7,62.8,29.87,NW,304,0.0,2.0,97,0.00,,,0.02,Wunderground v.1.15,2013-06-11 12:22:00,
2013-06-11 08:28:00,63.9,63.0,29.87,NW,315,0.0,0.0,97,0.00,,,0.02,Wunderground v.1.15,2013-06-11 12:28:00,
2013-06-11 08:34:00,64.0,63.4,29.88,NW,314,0.0,2.0,98,0.00,,,0.02,Wunderground v.1.15,2013-06-11 12:34:00,
2013-06-11 08:39:00,64.1,63.5,29.87,NW,314,0.0,0.0,98,0.00,,,0.02,Wunderground v.1.15,2013-06-11 12:39:00,
2013-06-11 08:45:00,64.4,63.5,29.87,NW,314,0.0,2.0,97,0.00,,,0.02,Wunderground v.1.15,2013-06-11 12:45:00,
2013-06-11 08:50:00,64.5,63.6,29.88,West,261,0.0,2.0,97,0.00,,,0.02,Wunderground v.1.15,2013-06-11 12:50:00,
2013-06-11 08:55:00,64.6,64.0,29.88,West,261,0.0,2.0,98,0.00,,,0.02,Wunderground v.1.15,2013-06-11 12:55:00,
2013-06-11 09:01:00,64.6,63.7,29.88,West,272,1.0,2.0,97,0.00,,,0.02,Wunderground v.1.15,2013-06-11 13:01:00,
2013-06-11 09:06:00,64.7,63.8,29.87,NW,326,1.0,5.0,97,0.00,,,0.02,Wunderground v.1.15,2013-06-11 13:06:00,
2013-06-11 09:11:00,64.8,63.9,29.87,WNW,296,2.0,3.0,97,0.00,,,0.02,Wunderground v.1.15,2013-06-11 13:11:00,
2013-06-11 09:17:00,65.0,64.1,29.87,NNE,14,2.0,4.0,97,0.00,,,0.02,Wunderground v.1.15,2013-06-11 13:17:00,
2013-06-11 09:22:00,65.5,64.6,29.87,North,5,1.0,3.0,97,0.00,,,0.02,Wunderground v.1.15,2013-06-11 13:22:00,
2013-06-11 09:28:00,65.9,65.0,29.87,NNW,340,2.0,3.0,97,0.00,,,0.02,Wunderground v.1.15,2013-06-11 13:28:00,
2013-06-11 09:33:00,66.3,65.1,29.87,NW,321,2.0,5.0,96,0.00,,,0.02,Wunderground v.1.15,2013-06-11 13:33:00,
2013-06-11 09:38:00,66.7,64.9,29.88,North,5,2.0,5.0,94,0.00,,,0.02,Wunderground v.1.15,2013-06-11 13:38:00,
2013-06-11 09:43:00,67.0,64.9,29.88,NW,306,2.0,6.0,93,0.00,,,0.02,Wunderground v.1.15,2013-06-11 13:43:00,
2013-06-11 09:49:00,67.1,64.1,29.88,North,355,3.0,3.0,90,0.00,,,0.02,Wunderground v.1.15,2013-06-11 13:49:00,
2013-06-11 09:54:00,67.2,63.8,29.88,NW,310,3.0,5.0,89,0.00,,,0.02,Wunderground v.1.15,2013-06-11 13:54:00,
2013-06-11 09:59:00,67.3,63.9,29.88,NNE,20,2.0,3.0,89,0.00,,,0.02,Wunderground v.1.15,2013-06-11 13:59:00,
2013-06-11 10:05:00,67.6,63.9,29.88,NNW,346,3.0,5.0,88,0.00,,,0.02,Wunderground v.1.15,2013-06-11 14:05:00,
2013-06-11 10:10:00,67.8,64.1,29.88,NW,318,3.0,3.0,88,0.00,,,0.02,Wunderground v.1.15,2013-06-11 14:10:00,
2013-06-11 10:15:00,68.2,64.2,29.88,NNE,31,2.0,7.0,87,0.00,,,0.02,Wunderground v.1.15,2013-06-11 14:15:00,
2013-06-11 10:21:00,68.5,64.1,29.89,NNW,346,4.0,5.0,86,0.00,,,0.02,Wunderground v.1.15,2013-06-11 14:21:00,
2013-06-11 10:27:00,68.1,63.8,29.88,NW,304,5.0,8.0,86,0.00,,,0.02,Wunderground v.1.15,2013-06-11 14:27:00,
2013-06-11 10:32:00,68.3,64.3,29.88,NNW,342,4.0,6.0,87,0.00,,,0.02,Wunderground v.1.15,2013-06-11 14:32:00,
2013-06-11 10:37:00,68.2,63.9,29.88,WNW,292,4.0,10.0,86,0.00,,,0.02,Wunderground v.1.15,2013-06-11 14:37:00,
2013-06-11 10:42:00,68.5,64.1,29.89,WNW,296,3.0,4.0,86,0.00,,,0.02,Wunderground v.1.15,2013-06-11 14:42:00,
2013-06-11 10:48:00,68.9,64.5,29.89,North,355,2.0,4.0,86,0.00,,,0.02,Wunderground v.1.15,2013-06-11 14:48:00,
2013-06-11 10:53:00,69.0,64.3,29.89,WNW,299,2.0,4.0,85,0.00,,,0.02,Wunderground v.1.15,2013-06-11 14:53:00,
2013-06-11 10:59:00,69.3,64.6,29.89,NNE,15,3.0,6.0,85,0.00,,,0.02,Wunderground v.1.15,2013-06-11 14:59:00,
2013-06-11 11:04:00,69.6,64.9,29.89,WNW,298,3.0,6.0,85,0.00,,,0.02,Wunderground v.1.15,2013-06-11 15:04:00,
2013-06-11 11:10:00,70.1,64.7,29.89,NW,310,3.0,4.0,83,0.00,,,0.02,Wunderground v.1.15,2013-06-11 15:10:00,
2013-06-11 11:16:00,69.9,64.5,29.89,North,349,2.0,4.0,83,0.00,,,0.02,Wunderground v.1.15,2013-06-11 15:16:00,
2013-06-11 11:22:00,69.7,64.3,29.88,NW,309,2.0,3.0,83,0.00,,,0.02,Wunderground v.1.15,2013-06-11 15:22:00,
2013-06-11 11:28:00,69.9,64.2,29.89,NNW,331,3.0,5.0,82,0.00,,,0.02,Wunderground v.1.15,2013-06-11 15:28:00,
2013-06-11 11:33:00,70.3,64.5,29.89,North,5,4.0,6.0,82,0.00,,,0.02,Wunderground v.1.15,2013-06-11 15:33:00,
2013-06-11 11:39:00,70.4,63.9,29.89,North,355,4.0,5.0,80,0.00,,,0.02,Wunderground v.1.15,2013-06-11 15:39:00,
2013-06-11 11:44:00,70.0,63.9,29.89,WNW,300,5.0,9.0,81,0.00,,,0.02,Wunderground v.1.15,2013-06-11 15:44:00,
2013-06-11 11:50:00,70.3,64.5,29.89,NW,321,3.0,6.0,82,0.00,,,0.02,Wunderground v.1.15,2013-06-11 15:50:00,
2013-06-11 11:55:00,70.4,64.6,29.89,NNW,342,2.0,6.0,82,0.00,,,0.02,Wunderground v.1.15,2013-06-11 15:55:00,
2013-06-11 12:01:00,71.3,64.8,29.89,North,5,4.0,11.0,80,0.00,,,0.02,Wunderground v.1.15,2013-06-11 16:01:00,
2013-06-11 12:07:00,71.1,64.6,29.90,NNW,336,5.0,11.0,80,0.00,,,0.02,Wunderground v.1.15,2013-06-11 16:07:00,
2013-06-11 12:13:00,71.5,66.4,29.90,NNW,327,3.0,5.0,84,0.00,,,0.02,Wunderground v.1.15,2013-06-11 16:13:00,
2013-06-11 12:18:00,71.8,63.8,29.90,North,360,4.0,10.0,76,0.00,,,0.02,Wunderground v.1.15,2013-06-11 16:18:00,
2013-06-11 12:23:00,72.0,64.4,29.90,NNW,334,6.0,6.0,77,0.00,,,0.02,Wunderground v.1.15,2013-06-11 16:23:00,
2013-06-11 12:29:00,71.8,64.6,29.90,WNW,288,4.0,4.0,78,0.00,,,0.02,Wunderground v.1.15,2013-06-11 16:29:00,
2013-06-11 12:34:00,71.9,65.4,29.89,North,5,3.0,5.0,80,0.00,,,0.02,Wunderground v.1.15,2013-06-11 16:34:00,
2013-06-11 12:39:00,72.3,64.3,29.90,North,360,4.0,6.0,76,0.00,,,0.02,Wunderground v.1.15,2013-06-11 16:39:00,
2013-06-11 12:44:00,72.5,64.9,29.90,WNW,296,4.0,7.0,77,0.00,,,0.02,Wunderground v.1.15,2013-06-11 16:44:00,
2013-06-11 12:50:00,73.0,65.4,29.89,NNW,336,4.0,7.0,77,0.00,,,0.02,Wunderground v.1.15,2013-06-11 16:50:00,
2013-06-11 12:55:00,73.1,65.1,29.89,WNW,286,4.0,7.0,76,0.00,,,0.02,Wunderground v.1.15,2013-06-11 16:55:00,
2013-06-11 13:01:00,73.1,65.5,29.89,WNW,283,3.0,5.0,77,0.00,,,0.02,Wunderground v.1.15,2013-06-11 17:01:00,
2013-06-11 13:06:00,73.2,64.4,29.89,NNW,342,3.0,11.0,74,0.00,,,0.02,Wunderground v.1.15,2013-06-11 17:06:00,
2013-06-11 13:11:00,73.1,65.1,29.89,NW,319,2.0,3.0,76,0.00,,,0.02,Wunderground v.1.15,2013-06-11 17:11:00,
2013-06-11 13:17:00,73.4,65.0,29.89,NNW,328,3.0,6.0,75,0.00,,,0.02,Wunderground v.1.15,2013-06-11 17:17:00,
2013-06-11 13:22:00,73.5,64.7,29.88,NE,36,3.0,5.0,74,0.00,,,0.02,Wunderground v.1.15,2013-06-11 17:22:00,
2013-06-11 13:28:00,73.3,64.9,29.88,NW,309,4.0,5.0,75,0.00,,,0.02,Wunderground v.1.15,2013-06-11 17:28:00,
2013-06-11 13:34:00,72.8,65.2,29.89,WNW,288,3.0,4.0,77,0.00,,,0.02,Wunderground v.1.15,2013-06-11 17:34:00,
2013-06-11 13:40:00,73.2,65.2,29.88,WNW,283,2.0,2.0,76,0.00,,,0.02,Wunderground v.1.15,2013-06-11 17:40:00,
2013-06-11 13:45:00,73.6,65.9,29.88,North,360,2.0,4.0,77,0.00,,,0.02,Wunderground v.1.15,2013-06-11 17:45:00,
2013-06-11 13:51:00,73.9,65.1,29.88,WNW,287,2.0,7.0,74,0.00,,,0.02,Wunderground v.1.15,2013-06-11 17:51:00,
2013-06-11 13:56:00,73.8,65.4,29.88,NNW,348,2.0,7.0,75,0.00,,,0.02,Wunderground v.1.15,2013-06-11 17:56:00,
2013-06-11 14:02:00,73.8,65.4,29.88,North,355,2.0,4.0,75,0.00,,,0.02,Wunderground v.1.15,2013-06-11 18:02:00,
2013-06-11 14:08:00,74.0,66.0,29.88,NNE,19,3.0,5.0,76,0.00,,,0.02,Wunderground v.1.15,2013-06-11 18:08:00,
2013-06-11 14:13:00,74.2,65.0,29.87,NNW,330,3.0,3.0,73,0.00,,,0.02,Wunderground v.1.15,2013-06-11 18:13:00,
2013-06-11 14:19:00,74.5,66.1,29.87,North,9,2.0,2.0,75,0.00,,,0.02,Wunderground v.1.15,2013-06-11 18:19:00,
2013-06-11 14:25:00,74.8,65.2,29.87,NNW,327,2.0,5.0,72,0.00,,,0.02,Wunderground v.1.15,2013-06-11 18:25:00,
2013-06-11 14:31:00,75.1,66.6,29.87,North,360,2.0,3.0,75,0.00,,,0.02,Wunderground v.1.15,2013-06-11 18:31:00,
2013-06-11 14:36:00,75.4,66.9,29.87,WNW,282,2.0,5.0,75,0.00,,,0.02,Wunderground v.1.15,2013-06-11 18:36:00,
2013-06-11 14:41:00,75.4,66.1,29.87,West,281,3.0,4.0,73,0.00,,,0.02,Wunderground v.1.15,2013-06-11 18:41:00,
2013-06-11 14:46:00,75.7,66.8,29.87,WNW,296,2.0,4.0,74,0.00,,,0.02,Wunderground v.1.15,2013-06-11 18:46:00,
2013-06-11 14:53:00,76.1,66.4,29.87,NW,307,1.0,2.0,72,0.00,,,0.02,Wunderground v.1.15,2013-06-11 18:53:00,
2013-06-11 14:58:00,76.5,66.8,29.86,NW,313,1.0,3.0,72,0.00,,,0.02,Wunderground v.1.15,2013-06-11 18:58:00,
2013-06-11 15:03:00,76.7,67.0,29.86,NNW,347,3.0,6.0,72,0.00,,,0.02,Wunderground v.1.15,2013-06-11 19:03:00,
2013-06-11 15:08:00,76.8,67.1,29.86,West,280,3.0,6.0,72,0.00,,,0.02,Wunderground v.1.15,2013-06-11 19:08:00,
2013-06-11 15:14:00,77.2,67.1,29.86,West,280,1.0,3.0,71,0.00,,,0.02,Wunderground v.1.15,2013-06-11 19:14:00,
2013-06-11 15:19:00,77.1,66.6,29.86,WNW,285,1.0,1.0,70,0.00,,,0.02,Wunderground v.1.15,2013-06-11 19:19:00,
2013-06-11 15:24:00,77.3,67.2,29.86,WNW,289,2.0,5.0,71,0.00,,,0.02,Wunderground v.1.15,2013-06-11 19:24:00,
2013-06-11 15:29:00,77.3,65.9,29.86,West,279,3.0,6.0,68,0.00,,,0.02,Wunderground v.1.15,2013-06-11 19:29:00,
2013-06-11 15:34:00,77.1,66.6,29.86,WNW,295,4.0,6.0,70,0.00,,,0.02,Wunderground v.1.15,2013-06-11 19:34:00,
2013-06-11 15:40:00,77.5,67.4,29.86,WNW,290,2.0,4.0,71,0.00,,,0.02,Wunderground v.1.15,2013-06-11 19:40:00,
2013-06-11 15:45:00,77.5,66.1,29.86,WNW,286,2.0,4.0,68,0.00,,,0.02,Wunderground v.1.15,2013-06-11 19:45:00,
2013-06-11 15:51:00,77.5,67.8,29.85,NW,307,2.0,3.0,72,0.00,,,0.02,Wunderground v.1.15,2013-06-11 19:51:00,
2013-06-11 15:56:00,77.7,66.7,29.85,WNW,287,3.0,9.0,69,0.00,,,0.02,Wunderground v.1.15,2013-06-11 19:56:00,
2013-06-11 16:02:00,77.9,67.3,29.85,West,269,3.0,3.0,70,0.00,,,0.02,Wunderground v.1.15,2013-06-11 20:02:00,
2013-06-11 16:07:00,78.5,67.9,29.85,WNW,282,1.0,10.0,70,0.00,,,0.02,Wunderground v.1.15,2013-06-11 20:07:00,
2013-06-11 16:13:00,78.5,67.1,29.85,NNW,334,3.0,6.0,68,0.00,,,0.02,Wunderground v.1.15,2013-06-11 20:13:00,
2013-06-11 16:19:00,78.7,67.2,29.85,NW,304,3.0,6.0,68,0.00,,,0.02,Wunderground v.1.15,2013-06-11 20:19:00,
2013-06-11 16:24:00,78.4,67.8,29.85,NW,325,2.0,5.0,70,0.00,,,0.02,Wunderground v.1.15,2013-06-11 20:24:00,
2013-06-11 16:30:00,78.3,68.9,29.85,West,277,3.0,3.0,73,0.00,,,0.02,Wunderground v.1.15,2013-06-11 20:30:00,
2013-06-11 16:35:00,78.4,67.8,29.85,NW,325,3.0,7.0,70,0.00,,,0.02,Wunderground v.1.15,2013-06-11 20:35:00,
2013-06-11 16:41:00,78.6,67.6,29.85,WNW,291,3.0,3.0,69,0.00,,,0.02,Wunderground v.1.15,2013-06-11 20:41:00,
2013-06-11 16:47:00,78.7,67.2,29.84,WNW,296,3.0,3.0,68,0.00,,,0.02,Wunderground v.1.15,2013-06-11 20:47:00,
2013-06-11 16:52:00,78.9,68.3,29.84,WNW,293,2.0,3.0,70,0.00,,,0.02,Wunderground v.1.15,2013-06-11 20:52:00,
2013-06-11 16:57:00,78.7,66.8,29.84,NW,314,2.0,4.0,67,0.00,,,0.02,Wunderground v.1.15,2013-06-11 20:57:00,
2013-06-11 17:03:00,78.4,67.8,29.84,NNW,340,2.0,4.0,70,0.00,,,0.02,Wunderground v.1.15,2013-06-11 21:03:00,
2013-06-11 17:09:00,78.1,67.1,29.84,WNW,289,2.0,7.0,69,0.00,,,0.02,Wunderground v.1.15,2013-06-11 21:09:00,
2013-06-11 17:14:00,78.1,67.5,29.84,WNW,288,1.0,2.0,70,0.00,,,0.02,Wunderground v.1.15,2013-06-11 21:14:00,
2013-06-11 17:20:00,78.5,67.5,29.84,NNW,327,1.0,1.0,69,0.00,,,0.02,Wunderground v.1.15,2013-06-11 21:20:00,
2013-06-11 17:25:00,78.5,66.2,29.84,WNW,291,2.0,7.0,66,0.00,,,0.02,Wunderground v.1.15,2013-06-11 21:25:00,
2013-06-11 17:30:00,78.3,66.4,29.84,WNW,288,2.0,2.0,67,0.00,,,0.02,Wunderground v.1.15,2013-06-11 21:30:00,
2013-06-11 17:35:00,78.0,66.2,29.84,West,277,2.0,6.0,67,0.00,,,0.02,Wunderground v.1.15,2013-06-11 21:35:00,
2013-06-11 17:41:00,77.7,66.7,29.84,West,277,2.0,2.0,69,0.00,,,0.02,Wunderground v.1.15,2013-06-11 21:41:00,
2013-06-11 17:46:00,77.4,66.4,29.84,WNW,286,2.0,6.0,69,0.00,,,0.02,Wunderground v.1.15,2013-06-11 21:46:00,
2013-06-11 17:52:00,77.0,66.0,29.84,WNW,291,3.0,5.0,69,0.00,,,0.02,Wunderground v.1.15,2013-06-11 21:52:00,
2013-06-11 17:58:00,76.8,65.9,29.85,WNW,290,1.0,5.0,69,0.00,,,0.02,Wunderground v.1.15,2013-06-11 21:58:00,
2013-06-11 18:03:00,76.5,66.0,29.84,WNW,290,1.0,1.0,70,0.00,,,0.02,Wunderground v.1.15,2013-06-11 22:03:00,
2013-06-11 18:09:00,76.4,67.1,29.84,WNW,290,1.0,1.0,73,0.00,,,0.02,Wunderground v.1.15,2013-06-11 22:09:00,
2013-06-11 18:15:00,76.4,66.7,29.83,SSW,200,0.0,1.0,72,0.00,,,0.02,Wunderground v.1.15,2013-06-11 22:15:00,
2013-06-11 18:20:00,76.4,66.7,29.83,SSW,200,0.0,0.0,72,0.00,,,0.02,Wunderground v.1.15,2013-06-11 22:20:00,
2013-06-11 18:25:00,76.5,66.8,29.82,SSW,202,0.0,1.0,72,0.00,,,0.02,Wunderground v.1.15,2013-06-11 22:25:00,
2013-06-11 18:31:00,76.6,66.9,29.82,SSW,202,0.0,0.0,72,0.00,,,0.02,Wunderground v.1.15,2013-06-11 22:31:00,
2013-06-11 18:37:00,76.8,67.5,29.82,SSW,202,0.0,0.0,73,0.00,,,0.02,Wunderground v.1.15,2013-06-11 22:37:00,
2013-06-11 18:42:00,76.9,67.2,29.82,SSW,202,0.0,0.0,72,0.00,,,0.02,Wunderground v.1.15,2013-06-11 22:42:00,
2013-06-11 18:48:00,77.0,67.3,29.82,SSW,202,0.0,1.0,72,0.00,,,0.02,Wunderground v.1.15,2013-06-11 22:48:00,
2013-06-11 18:54:00,77.1,67.4,29.82,WSW,242,0.0,0.0,72,0.00,,,0.02,Wunderground v.1.15,2013-06-11 22:54:00,
2013-06-11 19:00:00,77.3,68.0,29.82,South,175,0.0,0.0,73,0.00,,,0.02,Wunderground v.1.15,2013-06-11 23:00:00,
2013-06-11 19:05:00,77.5,67.4,29.82,South,175,0.0,0.0,71,0.00,,,0.02,Wunderground v.1.15,2013-06-11 23:05:00,
2013-06-11 19:10:00,77.7,68.0,29.82,SW,235,0.0,0.0,72,0.00,,,0.02,Wunderground v.1.15,2013-06-11 23:10:00,
2013-06-11 19:15:00,77.8,67.2,29.82,WSW,237,0.0,0.0,70,0.00,,,0.02,Wunderground v.1.15,2013-06-11 23:15:00,
2013-06-11 19:20:00,77.8,67.6,29.82,WSW,237,0.0,0.0,71,0.00,,,0.02,Wunderground v.1.15,2013-06-11 23:20:00,
2013-06-11 19:26:00,77.8,67.6,29.82,WSW,237,0.0,0.0,71,0.00,,,0.02,Wunderground v.1.15,2013-06-11 23:26:00,
2013-06-11 19:31:00,77.7,68.4,29.82,WSW,237,0.0,0.0,73,0.00,,,0.02,Wunderground v.1.15,2013-06-11 23:31:00,
2013-06-11 19:37:00,77.7,68.4,29.82,WSW,237,0.0,0.0,73,0.00,,,0.02,Wunderground v.1.15,2013-06-11 23:37:00,
2013-06-11 19:42:00,77.6,68.3,29.82,WSW,237,0.0,0.0,73,0.00,,,0.02,Wunderground v.1.15,2013-06-11 23:42:00,
2013-06-11 19:48:00,77.7,68.0,29.82,WSW,237,0.0,0.0,72,0.00,,,0.02,Wunderground v.1.15,2013-06-11 23:48:00,
2013-06-11 19:53:00,77.6,67.9,29.82,SSE,162,0.0,0.0,72,0.00,,,0.02,Wunderground v.1.15,2013-06-11 23:53:00,
2013-06-11 19:59:00,77.4,68.1,29.82,SSE,162,0.0,0.0,73,0.00,,,0.02,Wunderground v.1.15,2013-06-11 23:59:00,
2013-06-11 20:04:00,77.3,68.0,29.82,East,96,0.0,0.0,73,0.00,,,0.02,Wunderground v.1.15,2013-06-12 00:04:00,
2013-06-11 20:10:00,77.0,68.1,29.82,East,96,0.0,0.0,74,0.00,,,0.02,Wunderground v.1.15,2013-06-12 00:10:00,
2013-06-11 20:15:00,76.8,67.9,29.82,East,95,0.0,0.0,74,0.00,,,0.02,Wunderground v.1.15,2013-06-12 00:15:00,
2013-06-11 20:20:00,76.5,68.0,29.82,East,96,0.0,0.0,75,0.00,,,0.02,Wunderground v.1.15,2013-06-12 00:20:00,
2013-06-11 20:26:00,76.2,68.5,29.83,East,95,0.0,0.0,77,0.00,,,0.02,Wunderground v.1.15,2013-06-12 00:26:00,
2013-06-11 20:31:00,76.0,68.3,29.83,East,95,0.0,0.0,77,0.00,,,0.02,Wunderground v.1.15,2013-06-12 00:31:00,
2013-06-11 20:36:00,75.7,68.4,29.83,East,96,0.0,0.0,78,0.00,,,0.02,Wunderground v.1.15,2013-06-12 00:36:00,
2013-06-11 20:42:00,75.4,68.1,29.83,East,96,0.0,0.0,78,0.00,,,0.02,Wunderground v.1.15,2013-06-12 00:42:00,
2013-06-11 20:47:00,75.3,68.3,29.83,East,96,0.0,0.0,79,0.00,,,0.02,Wunderground v.1.15,2013-06-12 00:47:00,
2013-06-11 20:52:00,75.1,67.8,29.83,East,96,0.0,0.0,78,0.00,,,0.02,Wunderground v.1.15,2013-06-12 00:52:00,
2013-06-11 20:57:00,74.9,67.9,29.83,WNW,301,0.0,0.0,79,0.00,,,0.02,Wunderground v.1.15,2013-06-12 00:57:00,
2013-06-11 21:02:00,74.7,68.1,29.83,SW,229,0.0,0.0,80,0.00,,,0.02,Wunderground v.1.15,2013-06-12 01:02:00,
2013-06-11 21:07:00,74.5,68.3,29.83,South,184,0.0,0.0,81,0.00,,,0.02,Wunderground v.1.15,2013-06-12 01:07:00,
2013-06-11 21:13:00,74.1,67.9,29.83,SE,140,0.0,0.0,81,0.00,,,0.02,Wunderground v.1.15,2013-06-12 01:13:00,
2013-06-11 21:19:00,73.8,68.3,29.83,NE,42,0.0,0.0,83,0.00,,,0.02,Wunderground v.1.15,2013-06-12 01:19:00,
2013-06-11 21:24:00,73.3,67.8,29.83,NE,42,0.0,0.0,83,0.00,,,0.02,Wunderground v.1.15,2013-06-12 01:24:00,
2013-06-11 21:30:00,73.0,67.9,29.83,NE,42,0.0,0.0,84,0.00,,,0.02,Wunderground v.1.15,2013-06-12 01:30:00,
2013-06-11 21:35:00,72.7,67.9,29.83,NE,42,0.0,1.0,85,0.00,,,0.02,Wunderground v.1.15,2013-06-12 01:35:00,
2013-06-11 21:40:00,72.3,67.5,29.84,NE,42,0.0,0.0,85,0.00,,,0.02,Wunderground v.1.15,2013-06-12 01:40:00,
2013-06-11 21:46:00,72.1,67.3,29.84,North,5,0.0,4.0,85,0.00,,,0.02,Wunderground v.1.15,2013-06-12 01:46:00,
2013-06-11 21:52:00,72.1,67.0,29.84,North,360,1.0,2.0,84,0.00,,,0.02,Wunderground v.1.15,2013-06-12 01:52:00,
2013-06-11 21:57:00,72.2,67.1,29.84,North,360,0.0,2.0,84,0.00,,,0.02,Wunderground v.1.15,2013-06-12 01:57:00,
2013-06-11 22:02:00,72.2,67.1,29.84,North,360,0.0,0.0,84,0.00,,,0.02,Wunderground v.1.15,2013-06-12 02:02:00,
2013-06-11 22:07:00,72.1,67.0,29.85,North,5,0.0,0.0,84,0.00,,,0.02,Wunderground v.1.15,2013-06-12 02:07:00,
2013-06-11 22:14:00,71.8,66.7,29.85,North,5,0.0,0.0,84,0.00,,,0.02,Wunderground v.1.15,2013-06-12 02:14:00,
2013-06-11 22:19:00,71.6,66.5,29.85,North,360,0.0,0.0,84,0.00,,,0.02,Wunderground v.1.15,2013-06-12 02:19:00,
2013-06-11 22:24:00,71.3,66.2,29.85,North,360,0.0,0.0,84,0.00,,,0.02,Wunderground v.1.15,2013-06-12 02:24:00,
2013-06-11 22:29:00,71.0,66.3,29.85,North,5,0.0,0.0,85,0.00,,,0.02,Wunderground v.1.15,2013-06-12 02:29:00,
2013-06-11 22:35:00,70.6,66.2,29.85,North,5,0.0,0.0,86,0.00,,,0.02,Wunderground v.1.15,2013-06-12 02:35:00,
2013-06-11 22:40:00,70.2,65.8,29.85,North,5,0.0,0.0,86,0.00,,,0.02,Wunderground v.1.15,2013-06-12 02:40:00,
2013-06-11 22:45:00,69.8,65.8,29.85,North,360,0.0,0.0,87,0.00,,,0.02,Wunderground v.1.15,2013-06-12 02:45:00,
2013-06-11 22:51:00,69.4,65.7,29.86,North,360,0.0,0.0,88,0.00,,,0.02,Wunderground v.1.15,2013-06-12 02:51:00,
2013-06-11 22:57:00,69.2,65.5,29.86,North,360,0.0,0.0,88,0.00,,,0.02,Wunderground v.1.15,2013-06-12 02:57:00,
2013-06-11 23:02:00,69.0,65.3,29.86,North,355,0.0,0.0,88,0.00,,,0.02,Wunderground v.1.15,2013-06-12 03:02:00,
2013-06-11 23:09:00,69.2,65.2,29.86,North,355,0.0,0.0,87,0.00,,,0.02,Wunderground v.1.15,2013-06-12 03:09:00,
2013-06-11 23:14:00,69.3,64.9,29.86,North,350,0.0,1.0,86,0.00,,,0.02,Wunderground v.1.15,2013-06-12 03:14:00,
2013-06-11 23:20:00,69.3,64.6,29.86,North,349,1.0,1.0,85,0.00,,,0.02,Wunderground v.1.15,2013-06-12 03:20:00,
2013-06-11 23:25:00,69.2,64.5,29.86,North,349,0.0,1.0,85,0.00,,,0.02,Wunderground v.1.15,2013-06-12 03:25:00,
2013-06-11 23:30:00,69.1,64.4,29.86,North,349,0.0,0.0,85,0.00,,,0.02,Wunderground v.1.15,2013-06-12 03:30:00,
2013-06-11 23:36:00,68.8,64.1,29.87,North,349,0.0,0.0,85,0.00,,,0.02,Wunderground v.1.15,2013-06-12 03:36:00,
2013-06-11 23:41:00,68.6,64.2,29.87,North,349,0.0,0.0,86,0.00,,,0.02,Wunderground v.1.15,2013-06-12 03:41:00,
2013-06-11 23:47:00,68.4,64.0,29.86,North,349,0.0,0.0,86,0.00,,,0.02,Wunderground v.1.15,2013-06-12 03:47:00,
2013-06-11 23:54:00,68.2,63.9,29.86,North,349,0.0,1.0,86,0.00,,,0.02,Wunderground v.1.15,2013-06-12 03:54:00,
2013-06-11 23:59:00,68.0,63.7,29.87,North,349,0.0,1.0,86,0.00,,,0.02,Wunderground v.1.15,2013-06-12 03:59:00,